Time;durP1;ratioP1;P1;durP2;ratioP2;P2;SDS_P1;SDS_P2;PMS_P1;PMS_P2;Temp;Humidity;BMP_temperature;BMP_pressure;BME280_temperature;BME280_humidity;BME280_pressure;Samples;Min_cycle;Max_cycle;Signal;HPM_P1;HPM_P2
2022/03/12 00:00:35;;;;;;;11.40;4.97;;;7.40;51.40;;;;;;5088744;28;20044;-69
2022/03/12 00:03:00;;;;;;;10.18;5.13;;;7.30;51.30;;;;;;5072064;28;20049;-69
2022/03/12 00:05:30;;;;;;;8.45;4.57;;;7.30;51.50;;;;;;5089806;28;20104;-69
2022/03/12 00:08:08;;;;;;;8.73;4.40;;;7.30;51.50;;;;;;5123057;22;20069;-75
2022/03/12 00:10:46;;;;;;;8.40;4.68;;;7.20;51.30;;;;;;5106380;28;20050;-75
2022/03/12 00:13:12;;;;;;;11.30;4.60;;;7.30;51.60;;;;;;5098974;22;20502;-68
2022/03/12 00:15:38;;;;;;;8.93;4.43;;;7.20;51.40;;;;;;5092361;28;20043;-69
2022/03/12 00:18:06;;;;;;;10.10;4.53;;;7.20;51.60;;;;;;5078479;28;20024;-68
2022/03/12 00:20:33;;;;;;;11.20;4.63;;;7.20;51.80;;;;;;5090518;28;20046;-69
2022/03/12 00:22:59;;;;;;;10.30;4.53;;;7.10;51.60;;;;;;5076035;28;20048;-69
2022/03/12 00:25:25;;;;;;;10.47;4.77;;;7.10;51.70;;;;;;5084988;28;20043;-68
2022/03/12 00:27:54;;;;;;;;;;;7.10;51.70;;;;;;5096631;28;20086;-67
2022/03/12 00:30:26;;;;;;;13.68;5.03;;;7.10;51.70;;;;;;5081421;28;20026;-69
2022/03/12 00:32:53;;;;;;;10.23;4.93;;;7.00;51.70;;;;;;5106057;28;20043;-68
2022/03/12 00:35:20;;;;;;;7.90;4.22;;;7.00;51.60;;;;;;5103269;28;20138;-68
2022/03/12 00:37:46;;;;;;;8.27;4.97;;;7.00;51.80;;;;;;5093078;28;20071;-69
2022/03/12 00:40:15;;;;;;;12.00;4.90;;;7.00;51.90;;;;;;5089823;28;20675;-67
2022/03/12 00:42:42;;;;;;;9.25;4.45;;;7.00;51.70;;;;;;5080942;28;20046;-69
2022/03/12 00:45:10;;;;;;;8.85;4.97;;;7.00;51.80;;;;;;5086914;28;20520;-69
2022/03/12 00:47:35;;;;;;;14.15;5.35;;;7.00;52.00;;;;;;5090047;28;20100;-68
2022/03/12 00:50:01;;;;;;;11.43;4.87;;;7.00;51.80;;;;;;5103046;27;20548;-67
2022/03/12 00:52:27;;;;;;;11.30;5.63;;;6.90;51.80;;;;;;5110539;27;20518;-68
2022/03/12 00:54:53;;;;;;;10.00;4.55;;;6.90;51.80;;;;;;5075069;27;20035;-68
2022/03/12 00:57:18;;;;;;;11.07;5.37;;;6.90;51.80;;;;;;5091348;27;20039;-69
2022/03/12 00:59:44;;;;;;;8.83;4.83;;;6.90;51.80;;;;;;5111666;27;20155;-68
2022/03/12 01:02:17;;;;;;;8.98;4.82;;;6.90;51.80;;;;;;5093465;27;20039;-69
2022/03/12 01:04:43;;;;;;;9.52;4.45;;;6.90;51.80;;;;;;5085225;28;20126;-69
2022/03/12 01:07:13;;;;;;;11.15;4.43;;;6.90;51.80;;;;;;5074193;28;20115;-68
2022/03/12 01:09:39;;;;;;;7.38;4.63;;;6.90;51.70;;;;;;5118887;27;20360;-67
2022/03/12 01:12:06;;;;;;;13.18;5.35;;;6.90;51.70;;;;;;5105180;27;20046;-69
2022/03/12 01:14:32;;;;;;;9.65;4.85;;;6.90;51.60;;;;;;5071198;27;20514;-69
2022/03/12 01:16:59;;;;;;;9.53;4.97;;;6.90;51.60;;;;;;5105389;27;20039;-68
2022/03/12 01:19:25;;;;;;;;;;;7.00;51.40;;;;;;5089474;27;21010;-68
2022/03/12 01:21:52;;;;;;;10.38;4.85;;;6.90;51.20;;;;;;5115719;27;19924;-69
2022/03/12 01:24:18;;;;;;;11.82;5.50;;;6.90;51.10;;;;;;5123600;27;20051;-69
2022/03/12 01:26:44;;;;;;;6.78;3.97;;;7.00;51.40;;;;;;5061650;27;20317;-67
2022/03/12 01:29:14;;;;;;;9.15;4.78;;;6.90;51.50;;;;;;4978653;27;20771;-68
2022/03/12 01:31:40;;;;;;;11.15;4.25;;;6.90;51.40;;;;;;4953713;27;20342;-67
2022/03/12 01:34:06;;;;;;;;;;;6.90;51.50;;;;;;5087583;28;20118;-70
2022/03/12 01:36:32;;;;;;;8.80;4.97;;;6.90;51.20;;;;;;5079365;27;20025;-69
2022/03/12 01:38:59;;;;;;;10.10;4.63;;;6.90;51.30;;;;;;5076416;27;20042;-69
2022/03/12 01:41:33;;;;;;;9.50;3.92;;;6.90;51.20;;;;;;5026747;27;20580;-68
2022/03/12 01:44:02;;;;;;;10.10;4.40;;;7.00;51.40;;;;;;4961401;28;20294;-68
2022/03/12 01:46:32;;;;;;;11.15;4.80;;;6.90;51.40;;;;;;5067341;27;20214;-69
2022/03/12 01:48:59;;;;;;;8.27;4.70;;;6.90;51.30;;;;;;5080247;28;20070;-69
2022/03/12 01:51:29;;;;;;;8.38;4.47;;;6.90;51.20;;;;;;5079961;27;20492;-69
2022/03/12 01:53:55;;;;;;;12.48;5.05;;;6.90;51.10;;;;;;5095409;27;20493;-69
2022/03/12 01:56:27;;;;;;;8.75;4.22;;;6.90;51.20;;;;;;5096793;27;20131;-69
2022/03/12 01:58:54;;;;;;;7.70;4.28;;;6.90;50.90;;;;;;5095058;27;20104;-69
2022/03/12 02:01:25;;;;;;;7.78;4.50;;;7.00;51.00;;;;;;5073316;28;20460;-68
2022/03/12 02:03:52;;;;;;;8.93;5.07;;;6.90;50.90;;;;;;5016635;27;20433;-70
2022/03/12 02:06:21;;;;;;;9.90;4.68;;;7.00;51.00;;;;;;5095979;27;20055;-69
2022/03/12 02:08:49;;;;;;;11.38;5.10;;;7.00;50.90;;;;;;5123882;27;20103;-69
2022/03/12 02:11:21;;;;;;;13.40;4.82;;;7.00;50.90;;;;;;5094241;28;20507;-69
2022/03/12 02:13:50;;;;;;;11.38;4.43;;;7.00;50.70;;;;;;5065855;27;20039;-68
2022/03/12 02:16:22;;;;;;;8.95;4.85;;;7.00;50.90;;;;;;4968015;28;20040;-68
2022/03/12 02:18:48;;;;;;;10.55;4.85;;;7.00;50.90;;;;;;4987022;27;20338;-68
2022/03/12 02:21:38;;;;;;;;;;;7.00;50.90;;;;;;4982316;27;20208;-68
2022/03/12 02:24:10;;;;;;;7.93;4.20;;;7.00;50.50;;;;;;4966599;27;20027;-68
2022/03/12 02:26:42;;;;;;;10.23;4.68;;;7.10;51.00;;;;;;4983001;28;21163;-68
2022/03/12 02:29:18;;;;;;;7.45;4.13;;;7.10;50.90;;;;;;4979016;27;20923;-67
2022/03/12 02:31:50;;;;;;;10.25;4.65;;;7.10;50.90;;;;;;5066232;27;20522;-69
2022/03/12 02:34:25;;;;;;;11.45;5.13;;;7.20;50.50;;;;;;5078166;27;20078;-68
2022/03/12 02:36:52;;;;;;;9.48;5.20;;;7.10;50.50;;;;;;5031282;27;20434;-69
2022/03/12 02:39:20;;;;;;;9.10;4.50;;;7.20;50.40;;;;;;5085558;27;20031;-69
2022/03/12 02:41:48;;;;;;;11.73;4.72;;;7.30;50.10;;;;;;5040693;27;20055;-67
2022/03/12 02:44:32;;;;;;;8.75;4.55;;;7.30;50.30;;;;;;4983948;28;20490;-68
2022/03/12 02:47:15;;;;;;;7.70;4.40;;;7.30;50.30;;;;;;5088369;27;20539;-69
2022/03/12 02:49:48;;;;;;;10.75;5.20;;;7.30;50.00;;;;;;5092117;28;20054;-69
2022/03/12 02:52:18;;;;;;;10.25;4.93;;;7.30;50.90;;;;;;5036375;27;20047;-68
2022/03/12 02:54:52;;;;;;;7.97;4.88;;;7.30;50.00;;;;;;4963336;28;20301;-68
2022/03/12 02:57:21;;;;;;;9.25;4.82;;;7.30;49.80;;;;;;5076564;27;20039;-68
2022/03/12 02:59:53;;;;;;;11.40;4.70;;;7.40;49.70;;;;;;5058274;28;20380;-69
2022/03/12 03:02:31;;;;;;;9.68;4.85;;;7.40;49.80;;;;;;4959674;28;20665;-69
2022/03/12 03:04:58;;;;;;;8.60;4.70;;;7.40;49.70;;;;;;4981472;27;20837;-69
2022/03/12 03:07:25;;;;;;;10.85;5.15;;;7.50;49.60;;;;;;4953893;27;20062;-69
2022/03/12 03:09:51;;;;;;;9.20;5.18;;;7.50;49.60;;;;;;5071676;28;20043;-68
2022/03/12 03:12:19;;;;;;;10.88;4.50;;;7.50;49.50;;;;;;5049940;28;20222;-67
2022/03/12 03:14:50;;;;;;;9.35;5.22;;;7.40;49.40;;;;;;5011434;28;20040;-69
2022/03/12 03:17:17;;;;;;;9.68;4.65;;;7.60;49.40;;;;;;5101682;27;20039;-69
2022/03/12 03:19:44;;;;;;;8.02;5.22;;;7.60;49.40;;;;;;5082728;28;20085;-68
2022/03/12 03:22:12;;;;;;;12.15;5.32;;;7.60;49.40;;;;;;5103620;27;20031;-68
2022/03/12 03:24:38;;;;;;;9.82;5.43;;;7.60;49.70;;;;;;5115273;27;20461;-68
2022/03/12 03:27:04;;;;;;;9.40;4.70;;;7.60;49.90;;;;;;5093746;27;20039;-68
2022/03/12 03:29:32;;;;;;;9.93;5.13;;;7.60;50.40;;;;;;5067840;27;20411;-68
2022/03/12 03:32:01;;;;;;;11.55;5.28;;;7.60;50.70;;;;;;5086142;28;20176;-68
2022/03/12 03:34:29;;;;;;;8.63;5.10;;;7.60;50.80;;;;;;5073658;27;20058;-69
2022/03/12 03:36:55;;;;;;;15.68;5.03;;;7.60;51.00;;;;;;5077460;28;20092;-68
2022/03/12 03:39:21;;;;;;;9.37;5.07;;;7.60;50.70;;;;;;5084256;27;20488;-68
2022/03/12 03:41:47;;;;;;;9.27;5.43;;;7.70;50.70;;;;;;5079001;28;20395;-69
2022/03/12 03:44:13;;;;;;;;;;;7.70;51.30;;;;;;5100263;27;20483;-68
2022/03/12 03:46:40;;;;;;;9.65;5.45;;;7.70;51.80;;;;;;5125027;27;19915;-68
2022/03/12 03:49:06;;;;;;;11.20;5.13;;;7.70;51.50;;;;;;5098831;28;20047;-69
2022/03/12 03:51:43;;;;;;;9.27;5.20;;;7.70;51.60;;;;;;5088640;28;20130;-67
2022/03/12 03:54:15;;;;;;;9.68;4.82;;;7.70;51.30;;;;;;4976621;27;20426;-69
2022/03/12 03:56:47;;;;;;;11.68;4.78;;;7.70;50.90;;;;;;4964037;28;21079;-69
2022/03/12 03:59:13;;;;;;;8.95;5.03;;;7.80;51.10;;;;;;5028449;27;20070;-71
2022/03/12 04:01:41;;;;;;;9.98;4.78;;;7.80;51.30;;;;;;5106860;27;20067;-70
2022/03/12 04:04:12;;;;;;;8.93;4.57;;;7.80;51.10;;;;;;5094351;28;20453;-72
2022/03/12 04:06:39;;;;;;;8.32;4.88;;;7.80;51.50;;;;;;5021656;28;20562;-71
2022/03/12 04:09:10;;;;;;;10.30;5.30;;;7.80;52.20;;;;;;5000294;28;20483;-71
2022/03/12 04:11:39;;;;;;;9.15;5.38;;;7.80;52.90;;;;;;4987729;28;20103;-71
2022/03/12 04:14:06;;;;;;;11.90;5.38;;;7.80;54.10;;;;;;5103955;28;20027;-71
2022/03/12 04:16:33;;;;;;;11.48;5.22;;;7.70;53.90;;;;;;5078537;28;20043;-72
2022/03/12 04:19:05;;;;;;;11.98;5.50;;;7.70;54.70;;;;;;5098154;28;20075;-71
2022/03/12 04:21:31;;;;;;;8.43;5.03;;;7.70;55.50;;;;;;5104026;28;20040;-71
2022/03/12 04:23:57;;;;;;;13.10;5.73;;;7.70;55.90;;;;;;5097329;28;20066;-71
2022/03/12 04:26:24;;;;;;;10.70;5.45;;;7.60;56.80;;;;;;5107795;27;20861;-71
2022/03/12 04:28:51;;;;;;;9.45;4.93;;;7.60;58.20;;;;;;5032842;28;20716;-71
2022/03/12 04:31:18;;;;;;;11.38;6.28;;;7.60;58.50;;;;;;4982879;28;21013;-71
2022/03/12 04:33:47;;;;;;;9.70;5.45;;;7.50;59.30;;;;;;5073524;28;20050;-71
2022/03/12 04:36:13;;;;;;;11.20;5.93;;;7.50;60.40;;;;;;5126047;27;20032;-71
2022/03/12 04:38:40;;;;;;;15.68;5.50;;;7.40;62.30;;;;;;5083487;27;20119;-71
2022/03/12 04:41:06;;;;;;;;;;;7.40;62.20;;;;;;5087825;28;20518;-71
2022/03/12 04:43:33;;;;;;;10.65;5.65;;;7.30;65.20;;;;;;5119993;27;19915;-71
2022/03/12 04:46:03;;;;;;;12.23;5.65;;;7.30;63.50;;;;;;5030329;27;20090;-71
2022/03/12 04:48:29;;;;;;;10.10;6.13;;;7.20;64.30;;;;;;5073918;27;20044;-71
2022/03/12 04:50:56;;;;;;;9.82;5.53;;;7.20;66.70;;;;;;5086704;27;20046;-71
2022/03/12 04:53:23;;;;;;;10.60;6.10;;;7.10;68.50;;;;;;5112395;27;20042;-71
2022/03/12 04:55:49;;;;;;;14.77;5.97;;;7.00;68.60;;;;;;5104234;27;20115;-71
2022/03/12 04:58:16;;;;;;;9.60;5.25;;;7.00;69.00;;;;;;5019322;27;20529;-71
2022/03/12 05:00:46;;;;;;;10.65;6.00;;;6.90;69.00;;;;;;4975592;28;20299;-71
2022/03/12 05:03:19;;;;;;;11.45;5.97;;;6.90;70.50;;;;;;5094442;27;20066;-71
2022/03/12 05:05:49;;;;;;;13.80;6.03;;;6.80;70.40;;;;;;5066735;27;20675;-71
2022/03/12 05:08:16;;;;;;;10.88;5.90;;;6.80;71.90;;;;;;4986161;27;20422;-72
2022/03/12 05:10:44;;;;;;;9.93;6.10;;;6.80;72.50;;;;;;5037047;28;20040;-72
2022/03/12 05:13:12;;;;;;;10.57;6.10;;;6.70;74.40;;;;;;5101652;27;20117;-72
2022/03/12 05:15:39;;;;;;;10.90;6.28;;;6.70;74.50;;;;;;5080557;28;20134;-73
2022/03/12 05:18:13;;;;;;;11.50;5.90;;;6.70;75.70;;;;;;5083335;27;20537;-72
2022/03/12 05:20:43;;;;;;;14.00;6.97;;;6.60;76.90;;;;;;5100088;28;20066;-72
2022/03/12 05:23:10;;;;;;;11.70;6.25;;;6.60;78.00;;;;;;5107554;27;20043;-72
2022/03/12 05:25:41;;;;;;;12.98;6.68;;;6.60;78.40;;;;;;5008086;27;20546;-72
2022/03/12 05:28:16;;;;;;;12.10;5.95;;;6.50;80.00;;;;;;4986205;27;20487;-72
2022/03/12 05:30:47;;;;;;;15.00;6.78;;;6.50;80.20;;;;;;4972113;27;20273;-72
2022/03/12 05:33:19;;;;;;;10.32;5.95;;;6.50;80.90;;;;;;5006528;27;20044;-72
2022/03/12 05:35:51;;;;;;;10.25;5.82;;;6.50;80.60;;;;;;5044112;27;20044;-72
2022/03/12 05:38:18;;;;;;;11.75;5.55;;;6.50;80.30;;;;;;5106029;28;20503;-72
2022/03/12 05:40:44;;;;;;;13.90;7.28;;;6.40;81.20;;;;;;5078430;28;20058;-72
2022/03/12 05:43:14;;;;;;;16.20;6.82;;;6.40;82.40;;;;;;5097496;27;20048;-72
2022/03/12 05:45:45;;;;;;;12.73;6.53;;;6.40;80.80;;;;;;5103844;28;20059;-72
2022/03/12 05:48:11;;;;;;;10.95;6.00;;;6.40;81.80;;;;;;5086167;27;20133;-72
2022/03/12 05:50:38;;;;;;;10.02;6.13;;;6.40;82.00;;;;;;5090280;28;20047;-73
2022/03/12 05:53:08;;;;;;;12.73;6.72;;;6.40;81.70;;;;;;5087726;27;20162;-72
2022/03/12 05:55:39;;;;;;;11.10;5.97;;;6.40;81.70;;;;;;5095595;27;20027;-72
2022/03/12 05:58:06;;;;;;;14.18;6.05;;;6.40;82.70;;;;;;5098151;27;20438;-72
2022/03/12 06:00:32;;;;;;;13.20;6.00;;;6.40;81.80;;;;;;5101182;27;20044;-72
2022/03/12 06:03:00;;;;;;;12.25;5.68;;;6.40;82.00;;;;;;5124580;27;20042;-72
2022/03/12 06:05:26;;;;;;;10.45;5.80;;;6.40;81.80;;;;;;5088308;28;20409;-72
2022/03/12 06:07:53;;;;;;;14.88;6.82;;;6.40;82.00;;;;;;5089799;27;20104;-72
2022/03/12 06:10:24;;;;;;;11.35;6.45;;;6.40;81.70;;;;;;5088825;28;20066;-72
2022/03/12 06:12:53;;;;;;;13.07;7.10;;;6.30;82.30;;;;;;5069089;28;20062;-72
2022/03/12 06:15:20;;;;;;;9.00;5.03;;;6.40;81.10;;;;;;5091969;27;20106;-72
2022/03/12 06:17:49;;;;;;;9.45;5.85;;;6.40;81.00;;;;;;5095739;27;20067;-72
2022/03/12 06:20:16;;;;;;;10.35;5.90;;;6.40;80.80;;;;;;5107927;27;20040;-72
2022/03/12 06:22:44;;;;;;;12.43;6.20;;;6.30;80.20;;;;;;5103595;27;20054;-72
2022/03/12 06:25:12;;;;;;;12.93;6.05;;;6.40;79.30;;;;;;5098479;27;20126;-72
2022/03/12 06:27:41;;;;;;;11.13;6.03;;;6.30;79.10;;;;;;5093230;27;20047;-72
2022/03/12 06:30:10;;;;;;;11.98;5.95;;;6.30;79.70;;;;;;5099774;27;20527;-72
2022/03/12 06:32:38;;;;;;;11.70;6.95;;;6.30;79.10;;;;;;5096177;27;20044;-72
2022/03/12 06:35:05;;;;;;;11.30;6.28;;;6.30;79.00;;;;;;5103996;27;20098;-72
2022/03/12 06:37:31;;;;;;;15.95;7.53;;;6.20;79.80;;;;;;5113744;27;20047;-72
2022/03/12 06:39:58;;;;;;;10.10;5.67;;;6.20;79.80;;;;;;5102076;27;20027;-72
2022/03/12 06:42:27;;;;;;;13.27;6.57;;;6.10;79.60;;;;;;5111270;27;20096;-72
2022/03/12 06:44:55;;;;;;;10.73;6.15;;;6.10;79.90;;;;;;5114430;27;20043;-72
2022/03/12 06:47:27;;;;;;;14.55;6.10;;;6.10;80.10;;;;;;5075978;27;20070;-72
2022/03/12 06:49:54;;;;;;;12.57;7.20;;;6.00;80.30;;;;;;5095619;27;20051;-72
2022/03/12 06:52:20;;;;;;;12.68;6.50;;;6.00;80.80;;;;;;5092998;28;20484;-73
2022/03/12 06:54:45;;;;;;;11.97;6.60;;;6.00;80.90;;;;;;5090219;28;20149;-72
2022/03/12 06:57:11;;;;;;;12.63;6.67;;;5.90;81.60;;;;;;5095821;27;20035;-72
2022/03/12 06:59:37;;;;;;;13.80;6.77;;;5.90;81.30;;;;;;5068753;27;20514;-72
2022/03/12 07:02:03;;;;;;;10.03;6.07;;;5.90;81.90;;;;;;5091241;27;20054;-72
2022/03/12 07:04:28;;;;;;;10.67;5.67;;;5.90;81.60;;;;;;5110017;27;20285;-72
2022/03/12 07:06:54;;;;;;;13.33;7.20;;;5.80;82.00;;;;;;5087581;28;20499;-72
2022/03/12 07:09:20;;;;;;;13.07;5.73;;;5.80;82.70;;;;;;5089152;27;20165;-72
2022/03/12 07:11:45;;;;;;;11.03;6.70;;;5.80;84.60;;;;;;5090558;27;20067;-72
2022/03/12 07:14:11;;;;;;;12.30;6.70;;;5.80;85.10;;;;;;5090497;27;20040;-73
2022/03/12 07:16:37;;;;;;;13.93;6.93;;;5.80;85.50;;;;;;5096927;27;20075;-72
2022/03/12 07:19:03;;;;;;;11.15;6.40;;;5.80;85.90;;;;;;5105832;27;20419;-73
2022/03/12 07:21:29;;;;;;;15.23;6.57;;;5.80;85.60;;;;;;5096917;27;20046;-72
2022/03/12 07:23:56;;;;;;;17.08;7.25;;;5.90;86.30;;;;;;5094262;28;20039;-72
2022/03/12 07:26:22;;;;;;;15.82;6.35;;;5.90;86.10;;;;;;5076661;28;20086;-72
2022/03/12 07:28:49;;;;;;;13.00;6.03;;;5.90;86.50;;;;;;5076935;27;20043;-72
2022/03/12 07:31:18;;;;;;;12.95;5.93;;;5.90;86.20;;;;;;5083886;27;20070;-72
2022/03/12 07:33:44;;;;;;;11.65;6.57;;;6.00;85.90;;;;;;5089872;27;20074;-72
2022/03/12 07:36:11;;;;;;;13.00;6.70;;;6.00;86.30;;;;;;5095491;27;20457;-71
2022/03/12 07:38:36;;;;;;;14.02;6.10;;;6.00;86.20;;;;;;5088608;27;20264;-71
2022/03/12 07:41:02;;;;;;;10.47;5.97;;;6.10;86.00;;;;;;5114474;27;20314;-71
2022/03/12 07:43:28;;;;;;;10.67;6.77;;;6.20;85.90;;;;;;5087920;27;20359;-72
2022/03/12 07:45:53;;;;;;;14.43;6.83;;;6.20;86.20;;;;;;5120880;27;20035;-71
2022/03/12 07:48:19;;;;;;;13.87;7.67;;;6.30;86.10;;;;;;5087660;28;20039;-71
2022/03/12 07:50:45;;;;;;;11.17;6.87;;;6.30;85.00;;;;;;5092250;28;20032;-71
2022/03/12 07:53:12;;;;;;;13.30;6.15;;;6.40;85.00;;;;;;5097455;27;20054;-73
2022/03/12 07:55:39;;;;;;;12.48;6.35;;;6.50;84.10;;;;;;5066518;28;20043;-76
2022/03/12 07:58:05;;;;;;;10.93;6.05;;;6.60;82.30;;;;;;5106519;27;20054;-74
2022/03/12 08:00:31;;;;;;;12.73;6.20;;;6.70;81.70;;;;;;5086274;28;20495;-75
2022/03/12 08:02:58;;;;;;;10.43;6.00;;;6.80;81.30;;;;;;5082874;28;20093;-74
2022/03/12 08:05:25;;;;;;;11.18;6.50;;;6.90;80.40;;;;;;5111790;28;20541;-74
2022/03/12 08:07:54;;;;;;;13.60;6.50;;;7.00;80.30;;;;;;5088872;28;20044;-77
2022/03/12 08:10:21;;;;;;;15.45;7.05;;;7.10;79.50;;;;;;5115856;28;20491;-74
2022/03/12 08:12:48;;;;;;;10.98;7.03;;;7.10;79.20;;;;;;5097807;28;20107;-75
2022/03/12 08:15:15;;;;;;;20.08;6.78;;;7.20;78.30;;;;;;5117308;28;20031;-74
2022/03/12 08:17:42;;;;;;;16.58;6.63;;;7.30;78.00;;;;;;5107954;28;20039;-75
2022/03/12 08:20:11;;;;;;;12.23;6.53;;;7.40;77.70;;;;;;5094919;28;20043;-74
2022/03/12 08:22:43;;;;;;;12.88;6.43;;;7.60;77.00;;;;;;5096984;28;20043;-75
2022/03/12 08:25:11;;;;;;;15.45;7.05;;;7.70;76.90;;;;;;5078784;28;20134;-76
2022/03/12 08:27:37;;;;;;;13.38;6.35;;;7.80;76.00;;;;;;5096503;28;20372;-74
2022/03/12 08:30:07;;;;;;;12.98;6.65;;;8.00;75.20;;;;;;5097351;28;20279;-74
2022/03/12 08:32:35;;;;;;;12.85;6.25;;;8.10;74.80;;;;;;5073335;28;20138;-74
2022/03/12 08:35:05;;;;;;;13.90;7.03;;;8.20;74.50;;;;;;5110693;28;20030;-74
2022/03/12 08:37:31;;;;;;;17.25;7.50;;;8.30;74.10;;;;;;5071584;28;20046;-74
2022/03/12 08:39:57;;;;;;;;;;;8.40;74.30;;;;;;5116030;28;20058;-74
2022/03/12 08:42:24;;;;;;;14.88;6.78;;;8.50;77.00;;;;;;5095120;28;19915;-76
2022/03/12 08:44:51;;;;;;;15.50;8.07;;;8.60;74.80;;;;;;5106627;28;20430;-74
2022/03/12 08:47:17;;;;;;;16.85;6.65;;;8.70;75.50;;;;;;5088974;28;20127;-76
2022/03/12 08:49:42;;;;;;;17.95;8.88;;;8.80;76.50;;;;;;5100263;28;20290;-76
2022/03/12 08:52:08;;;;;;;18.70;7.10;;;8.90;77.00;;;;;;5110157;28;20039;-77
2022/03/12 08:54:34;;;;;;;14.85;7.55;;;9.00;76.50;;;;;;5102996;28;20507;-74
2022/03/12 08:57:00;;;;;;;15.82;7.25;;;9.20;76.80;;;;;;5076271;28;20039;-76
2022/03/12 08:59:26;;;;;;;14.30;7.47;;;9.30;76.60;;;;;;5088195;28;20038;-74
2022/03/12 09:01:52;;;;;;;14.10;7.73;;;9.40;76.50;;;;;;5082617;28;20874;-76
2022/03/12 09:04:19;;;;;;;17.13;8.47;;;9.50;78.10;;;;;;5090591;28;20043;-74
2022/03/12 09:06:47;;;;;;;15.90;7.38;;;9.60;77.70;;;;;;5087075;28;20070;-72
2022/03/12 09:09:12;;;;;;;16.50;8.25;;;9.70;76.90;;;;;;5085471;28;20108;-72
2022/03/12 09:11:38;;;;;;;17.00;7.30;;;9.90;76.20;;;;;;5108646;27;20039;-74
2022/03/12 09:14:04;;;;;;;14.07;7.82;;;10.00;77.00;;;;;;5108695;27;20060;-71
2022/03/12 09:16:30;;;;;;;17.57;7.23;;;10.10;77.30;;;;;;5106541;27;20070;-72
2022/03/12 09:18:56;;;;;;;12.17;6.33;;;10.20;77.90;;;;;;5089775;28;20067;-72
2022/03/12 09:21:21;;;;;;;16.83;7.90;;;10.20;78.30;;;;;;5108960;27;20492;-71
2022/03/12 09:23:47;;;;;;;16.27;7.20;;;10.30;78.50;;;;;;5073349;28;20032;-72
2022/03/12 09:26:14;;;;;;;12.63;7.60;;;10.40;78.20;;;;;;5103983;27;20070;-71
2022/03/12 09:28:40;;;;;;;12.50;6.10;;;10.50;78.90;;;;;;5080553;28;20047;-72
2022/03/12 09:31:06;;;;;;;;;;;10.50;78.90;;;;;;5087057;27;20130;-71
2022/03/12 09:33:32;;;;;;;12.13;6.80;;;10.60;83.80;;;;;;5092863;28;20019;-72
2022/03/12 09:35:58;;;;;;;13.05;6.93;;;10.70;80.20;;;;;;5112180;27;20107;-72
2022/03/12 09:38:27;;;;;;;12.00;6.35;;;10.70;81.20;;;;;;5068675;27;20127;-73
2022/03/12 09:40:53;;;;;;;12.00;7.13;;;10.80;83.60;;;;;;5114727;27;20115;-72
2022/03/12 09:43:19;;;;;;;13.37;7.30;;;10.90;86.00;;;;;;5070132;27;20482;-71
2022/03/12 09:45:45;;;;;;;14.60;7.25;;;11.00;85.30;;;;;;5069193;28;20654;-74
2022/03/12 09:48:10;;;;;;;11.90;5.72;;;11.00;88.60;;;;;;5108301;27;20038;-72
2022/03/12 09:50:36;;;;;;;9.53;5.50;;;11.10;88.60;;;;;;5090130;27;20035;-74
2022/03/12 09:53:03;;;;;;;10.43;5.90;;;11.20;88.30;;;;;;5107482;27;20049;-74
2022/03/12 09:55:29;;;;;;;11.27;6.22;;;11.30;88.50;;;;;;5096529;27;20031;-74
2022/03/12 09:57:55;;;;;;;12.37;7.03;;;11.40;87.80;;;;;;5100227;27;20027;-72
2022/03/12 10:00:21;;;;;;;11.15;5.70;;;11.40;88.20;;;;;;5097232;27;20082;-75
2022/03/12 10:02:46;;;;;;;10.00;5.40;;;11.50;89.60;;;;;;5113392;27;20035;-74
2022/03/12 10:05:16;;;;;;;9.97;5.30;;;11.60;90.00;;;;;;5111037;27;20040;-72
2022/03/12 10:07:42;;;;;;;9.60;5.80;;;11.70;89.70;;;;;;5087654;27;20320;-75
2022/03/12 10:10:17;;;;;;;10.30;5.32;;;11.80;89.20;;;;;;5085579;27;20042;-73
2022/03/12 10:12:47;;;;;;;10.80;5.70;;;11.80;89.00;;;;;;5107919;27;20031;-75
2022/03/12 10:15:14;;;;;;;10.52;5.57;;;11.90;88.20;;;;;;5087990;27;20273;-72
2022/03/12 10:17:40;;;;;;;11.52;5.85;;;12.00;87.20;;;;;;5102119;27;20039;-72
2022/03/12 10:20:07;;;;;;;11.00;5.93;;;12.10;87.30;;;;;;5075762;27;20046;-73
2022/03/12 10:22:33;;;;;;;13.95;5.85;;;12.20;87.40;;;;;;5115818;27;20084;-73
2022/03/12 10:24:59;;;;;;;8.67;5.53;;;12.40;87.10;;;;;;5099949;27;20444;-73
2022/03/12 10:27:25;;;;;;;9.77;5.60;;;12.40;85.90;;;;;;5104445;27;20487;-73
2022/03/12 10:29:51;;;;;;;8.23;5.30;;;12.40;84.40;;;;;;5088068;28;20043;-75
2022/03/12 10:32:25;;;;;;;11.30;5.80;;;12.40;84.50;;;;;;5096478;27;20691;-74
2022/03/12 10:34:53;;;;;;;10.95;5.43;;;12.50;85.60;;;;;;5089840;27;20130;-72
2022/03/12 10:37:28;;;;;;;9.52;5.25;;;12.60;85.10;;;;;;5107843;27;20046;-73
2022/03/12 10:40:08;;;;;;;7.47;4.82;;;12.80;84.00;;;;;;5109190;27;20126;-73
2022/03/12 10:42:36;;;;;;;10.32;4.88;;;12.90;82.80;;;;;;5110790;27;20456;-75
2022/03/12 10:45:26;;;;;;;14.55;5.18;;;13.00;81.60;;;;;;5111825;27;20516;-72
2022/03/12 10:47:54;;;;;;;12.60;5.38;;;13.20;79.80;;;;;;5073179;28;20051;-74
2022/03/12 10:50:30;;;;;;;9.55;4.55;;;13.20;78.80;;;;;;5085698;27;20054;-74
2022/03/12 10:52:58;;;;;;;9.60;4.47;;;13.30;78.00;;;;;;5108073;27;20085;-73
2022/03/12 10:55:27;;;;;;;11.73;4.97;;;13.30;77.20;;;;;;5114074;27;20573;-73
2022/03/12 10:58:07;;;;;;;9.88;5.38;;;13.30;76.50;;;;;;5100525;27;20077;-73
2022/03/12 11:00:39;;;;;;;8.85;5.40;;;13.30;77.40;;;;;;5112826;27;20512;-73
2022/03/12 11:03:11;;;;;;;7.70;5.32;;;13.40;77.40;;;;;;5114906;27;20042;-73
2022/03/12 11:05:38;;;;;;;8.95;5.40;;;13.50;77.50;;;;;;5087351;28;20035;-75
2022/03/12 11:08:15;;;;;;;8.23;5.30;;;13.50;76.70;;;;;;5089224;27;20043;-74
2022/03/12 11:10:52;;;;;;;11.23;5.53;;;13.60;77.30;;;;;;5104069;27;20071;-72
2022/03/12 11:13:40;;;;;;;7.80;5.05;;;13.70;76.30;;;;;;5085261;27;20048;-72
2022/03/12 11:16:23;;;;;;;10.32;5.00;;;13.70;77.10;;;;;;5078910;27;20129;-74
2022/03/12 11:18:51;;;;;;;10.10;5.80;;;13.70;75.80;;;;;;5086638;27;20105;-73
2022/03/12 11:21:24;;;;;;;10.70;5.45;;;13.80;75.60;;;;;;5092122;27;20042;-74
2022/03/12 11:23:50;;;;;;;11.20;4.60;;;14.00;74.90;;;;;;5069563;28;20040;-74
2022/03/12 11:26:15;;;;;;;9.67;4.93;;;13.90;73.20;;;;;;5087914;27;20395;-75
2022/03/12 11:28:55;;;;;;;9.57;5.03;;;14.10;73.60;;;;;;5108824;27;20471;-75
2022/03/12 11:31:44;;;;;;;8.05;4.68;;;14.00;73.20;;;;;;5112566;27;20046;-73
2022/03/12 11:34:14;;;;;;;8.88;5.07;;;14.10;72.30;;;;;;5085487;28;20047;-75
2022/03/12 11:36:42;;;;;;;11.25;5.88;;;14.10;72.60;;;;;;5095553;27;20188;-71
2022/03/12 11:39:08;;;;;;;9.30;5.10;;;14.10;72.30;;;;;;5102764;27;20040;-71
2022/03/12 11:41:37;;;;;;;10.25;5.13;;;14.20;72.10;;;;;;5110525;27;20035;-71
2022/03/12 11:44:07;;;;;;;10.50;5.00;;;14.20;72.30;;;;;;5113143;27;20035;-71
2022/03/12 11:46:33;;;;;;;13.85;4.85;;;14.20;72.00;;;;;;5105815;27;20062;-71
2022/03/12 11:48:59;;;;;;;9.27;4.90;;;14.30;72.00;;;;;;5083890;28;20126;-71
2022/03/12 11:51:24;;;;;;;9.25;4.35;;;14.30;71.20;;;;;;5084364;28;20047;-71
2022/03/12 11:53:53;;;;;;;10.23;4.30;;;14.30;71.30;;;;;;5086799;27;20048;-71
2022/03/12 11:56:22;;;;;;;11.38;4.55;;;14.40;71.20;;;;;;5107595;27;20039;-71
2022/03/12 11:58:48;;;;;;;11.50;4.60;;;14.40;72.30;;;;;;5084260;27;20101;-72
2022/03/12 12:01:20;;;;;;;9.47;5.00;;;14.50;71.20;;;;;;5112272;27;20445;-71
2022/03/12 12:03:47;;;;;;;10.98;5.47;;;14.50;69.80;;;;;;5101620;28;20407;-71
2022/03/12 12:06:14;;;;;;;8.55;5.03;;;14.50;70.30;;;;;;5063989;28;20071;-71
2022/03/12 12:08:40;;;;;;;7.43;4.50;;;14.50;70.30;;;;;;5108585;28;20054;-71
2022/03/12 12:11:06;;;;;;;11.43;5.22;;;14.60;70.30;;;;;;5079069;28;20462;-71
2022/03/12 12:13:33;;;;;;;9.90;5.25;;;14.60;70.30;;;;;;5094813;22;20508;-68
2022/03/12 12:15:58;;;;;;;;;;;14.60;69.40;;;;;;5081079;28;20092;-69
2022/03/12 12:18:25;;;;;;;7.97;4.68;;;14.50;67.90;;;;;;5072440;28;20367;-70
2022/03/12 12:20:50;;;;;;;9.93;5.60;;;14.50;69.00;;;;;;5086873;28;20035;-70
2022/03/12 12:23:18;;;;;;;9.55;5.45;;;14.50;69.20;;;;;;5115672;27;20043;-70
2022/03/12 12:25:44;;;;;;;8.52;5.00;;;14.50;69.20;;;;;;5119991;27;20034;-70
2022/03/12 12:28:13;;;;;;;8.52;5.85;;;14.40;69.00;;;;;;5113505;27;20031;-75
2022/03/12 12:30:43;;;;;;;6.88;5.10;;;14.50;69.50;;;;;;5089361;28;20068;-83
2022/03/12 12:33:29;;;;;;;7.90;5.00;;;14.50;69.90;;;;;;5098964;28;20066;-83
2022/03/12 12:36:18;;;;;;;8.48;4.75;;;14.60;69.00;;;;;;5092043;28;20141;-82
2022/03/12 12:39:13;;;;;;;7.57;4.72;;;14.60;69.60;;;;;;5077366;28;20135;-70
2022/03/12 12:41:58;;;;;;;11.38;5.72;;;14.70;69.10;;;;;;5093041;27;20124;-70
2022/03/12 12:44:54;;;;;;;7.07;4.38;;;14.80;68.10;;;;;;5098554;27;20143;-70
2022/03/12 12:47:22;;;;;;;9.48;4.55;;;14.90;68.20;;;;;;5080151;27;20287;-74
2022/03/12 12:49:55;;;;;;;11.75;5.57;;;15.00;67.90;;;;;;5084751;27;20701;-73
2022/03/12 12:52:22;;;;;;;8.68;4.50;;;15.20;67.90;;;;;;5107523;27;20405;-75
2022/03/12 12:54:56;;;;;;;10.55;4.93;;;15.40;67.00;;;;;;5092664;27;20147;-70
2022/03/12 12:57:47;;;;;;;10.20;4.50;;;15.40;65.20;;;;;;5117761;27;20823;-72